sensor_id;sensor_type;location;lat;lon;timestamp;P1;durP1;ratioP1;P2;durP2;ratioP2
29700;SDS011;57917;51.380;-0.176;2024-01-30T00:02:04;18.48;;;4.25;;
29700;SDS011;57917;51.380;-0.176;2024-01-30T00:07:52;8.32;;;3.92;;
29700;SDS011;57917;51.380;-0.176;2024-01-30T00:13:49;11.25;;;3.08;;
29700;SDS011;57917;51.380;-0.176;2024-01-30T00:19:36;11.38;;;3.05;;
29700;SDS011;57917;51.380;-0.176;2024-01-30T00:25:23;5.32;;;3.50;;
29700;SDS011;57917;51.380;-0.176;2024-01-30T00:31:10;4.32;;;2.65;;
29700;SDS011;57917;51.380;-0.176;2024-01-30T00:44:18;10.75;;;3.53;;
29700;SDS011;57917;51.380;-0.176;2024-01-30T00:50:13;4.68;;;2.03;;
29700;SDS011;57917;51.380;-0.176;2024-01-30T00:56:04;11.80;;;2.45;;
29700;SDS011;57917;51.380;-0.176;2024-01-30T01:01:51;6.18;;;1.45;;
29700;SDS011;57917;51.380;-0.176;2024-01-30T01:07:42;14.35;;;1.13;;
29700;SDS011;57917;51.380;-0.176;2024-01-30T01:13:36;1.10;;;0.98;;
29700;SDS011;57917;51.380;-0.176;2024-01-30T01:19:23;1.30;;;0.75;;
29700;SDS011;57917;51.380;-0.176;2024-01-30T01:25:10;15.60;;;0.77;;
29700;SDS011;57917;51.380;-0.176;2024-01-30T01:30:57;1.05;;;0.65;;
29700;SDS011;57917;51.380;-0.176;2024-01-30T01:36:51;5.28;;;1.00;;
29700;SDS011;57917;51.380;-0.176;2024-01-30T01:42:41;0.45;;;0.45;;
29700;SDS011;57917;51.380;-0.176;2024-01-30T01:48:28;4.70;;;1.08;;
29700;SDS011;57917;51.380;-0.176;2024-01-30T01:54:16;0.10;;;0.10;;
29700;SDS011;57917;51.380;-0.176;2024-01-30T02:00:04;0.20;;;0.20;;
29700;SDS011;57917;51.380;-0.176;2024-01-30T02:05:54;8.00;;;1.13;;
29700;SDS011;57917;51.380;-0.176;2024-01-30T02:11:41;5.38;;;0.65;;
29700;SDS011;57917;51.380;-0.176;2024-01-30T02:17:31;11.27;;;1.05;;
29700;SDS011;57917;51.380;-0.176;2024-01-30T02:23:18;0.30;;;0.30;;
29700;SDS011;57917;51.380;-0.176;2024-01-30T02:29:14;9.40;;;0.75;;
29700;SDS011;57917;51.380;-0.176;2024-01-30T02:35:06;3.22;;;0.40;;
29700;SDS011;57917;51.380;-0.176;2024-01-30T02:40:56;5.18;;;0.38;;
29700;SDS011;57917;51.380;-0.176;2024-01-30T02:46:48;6.40;;;1.33;;
29700;SDS011;57917;51.380;-0.176;2024-01-30T02:52:35;2.65;;;0.30;;
29700;SDS011;57917;51.380;-0.176;2024-01-30T02:58:22;0.98;;;0.52;;
29700;SDS011;57917;51.380;-0.176;2024-01-30T03:04:11;0.20;;;0.20;;
29700;SDS011;57917;51.380;-0.176;2024-01-30T03:10:01;3.17;;;1.50;;
29700;SDS011;57917;51.380;-0.176;2024-01-30T03:15:56;0.30;;;0.30;;
29700;SDS011;57917;51.380;-0.176;2024-01-30T03:21:46;0.65;;;0.28;;
29700;SDS011;57917;51.380;-0.176;2024-01-30T03:27:34;0.20;;;0.20;;
29700;SDS011;57917;51.380;-0.176;2024-01-30T03:33:21;2.38;;;0.45;;
29700;SDS011;57917;51.380;-0.176;2024-01-30T03:39:08;6.13;;;1.33;;
29700;SDS011;57917;51.380;-0.176;2024-01-30T03:44:56;1.05;;;0.35;;
29700;SDS011;57917;51.380;-0.176;2024-01-30T03:50:42;0.10;;;0.10;;
29700;SDS011;57917;51.380;-0.176;2024-01-30T03:56:30;0.10;;;0.10;;
29700;SDS011;57917;51.380;-0.176;2024-01-30T04:02:19;0.38;;;0.38;;
29700;SDS011;57917;51.380;-0.176;2024-01-30T04:08:06;1.90;;;1.25;;
29700;SDS011;57917;51.380;-0.176;2024-01-30T04:13:53;0.30;;;0.28;;
29700;SDS011;57917;51.380;-0.176;2024-01-30T04:19:41;0.40;;;0.40;;
29700;SDS011;57917;51.380;-0.176;2024-01-30T04:25:28;1.08;;;0.82;;
29700;SDS011;57917;51.380;-0.176;2024-01-30T04:31:15;0.20;;;0.20;;
29700;SDS011;57917;51.380;-0.176;2024-01-30T04:37:02;0.80;;;0.68;;
29700;SDS011;57917;51.380;-0.176;2024-01-30T04:42:49;2.30;;;0.73;;
29700;SDS011;57917;51.380;-0.176;2024-01-30T04:48:36;12.18;;;0.45;;
29700;SDS011;57917;51.380;-0.176;2024-01-30T04:54:23;0.10;;;0.10;;
29700;SDS011;57917;51.380;-0.176;2024-01-30T05:00:11;0.40;;;0.40;;
29700;SDS011;57917;51.380;-0.176;2024-01-30T05:05:59;6.32;;;0.65;;
29700;SDS011;57917;51.380;-0.176;2024-01-30T05:11:46;0.30;;;0.30;;
29700;SDS011;57917;51.380;-0.176;2024-01-30T05:17:33;0.30;;;0.30;;
29700;SDS011;57917;51.380;-0.176;2024-01-30T05:23:20;0.40;;;0.40;;
29700;SDS011;57917;51.380;-0.176;2024-01-30T05:29:07;0.80;;;0.45;;
29700;SDS011;57917;51.380;-0.176;2024-01-30T05:34:54;0.22;;;0.22;;
29700;SDS011;57917;51.380;-0.176;2024-01-30T05:40:41;0.60;;;0.40;;
29700;SDS011;57917;51.380;-0.176;2024-01-30T05:46:30;0.63;;;0.52;;
29700;SDS011;57917;51.380;-0.176;2024-01-30T05:52:17;0.28;;;0.28;;
29700;SDS011;57917;51.380;-0.176;2024-01-30T05:58:05;1.20;;;0.63;;
29700;SDS011;57917;51.380;-0.176;2024-01-30T06:03:53;2.85;;;0.68;;
29700;SDS011;57917;51.380;-0.176;2024-01-30T06:09:40;0.60;;;0.47;;
29700;SDS011;57917;51.380;-0.176;2024-01-30T06:15:27;0.65;;;0.65;;
29700;SDS011;57917;51.380;-0.176;2024-01-30T06:21:16;0.70;;;0.25;;
29700;SDS011;57917;51.380;-0.176;2024-01-30T06:27:03;0.85;;;0.70;;
29700;SDS011;57917;51.380;-0.176;2024-01-30T06:32:50;0.32;;;0.32;;
29700;SDS011;57917;51.380;-0.176;2024-01-30T06:38:37;0.73;;;0.60;;
29700;SDS011;57917;51.380;-0.176;2024-01-30T06:44:24;5.00;;;0.45;;
29700;SDS011;57917;51.380;-0.176;2024-01-30T06:50:11;0.70;;;0.70;;
29700;SDS011;57917;51.380;-0.176;2024-01-30T06:55:59;0.30;;;0.30;;
29700;SDS011;57917;51.380;-0.176;2024-01-30T07:01:46;0.47;;;0.47;;
29700;SDS011;57917;51.380;-0.176;2024-01-30T07:07:33;0.47;;;0.47;;
29700;SDS011;57917;51.380;-0.176;2024-01-30T07:13:21;1.05;;;0.95;;
29700;SDS011;57917;51.380;-0.176;2024-01-30T07:19:15;1.45;;;1.08;;
29700;SDS011;57917;51.380;-0.176;2024-01-30T07:25:03;1.33;;;0.60;;
29700;SDS011;57917;51.380;-0.176;2024-01-30T07:30:53;0.77;;;0.73;;
29700;SDS011;57917;51.380;-0.176;2024-01-30T07:36:40;0.70;;;0.70;;
29700;SDS011;57917;51.380;-0.176;2024-01-30T07:42:27;0.40;;;0.40;;
29700;SDS011;57917;51.380;-0.176;2024-01-30T07:48:23;2.03;;;0.88;;
29700;SDS011;57917;51.380;-0.176;2024-01-30T07:54:26;0.50;;;0.50;;
29700;SDS011;57917;51.380;-0.176;2024-01-30T08:00:16;1.80;;;0.85;;
29700;SDS011;57917;51.380;-0.176;2024-01-30T08:06:12;1.90;;;0.70;;
29700;SDS011;57917;51.380;-0.176;2024-01-30T08:12:02;0.20;;;0.20;;
29700;SDS011;57917;51.380;-0.176;2024-01-30T08:17:50;0.30;;;0.30;;
29700;SDS011;57917;51.380;-0.176;2024-01-30T08:23:46;0.30;;;0.30;;
29700;SDS011;57917;51.380;-0.176;2024-01-30T08:29:34;0.30;;;0.30;;
29700;SDS011;57917;51.380;-0.176;2024-01-30T08:35:22;0.65;;;0.40;;
29700;SDS011;57917;51.380;-0.176;2024-01-30T08:41:10;0.20;;;0.20;;
29700;SDS011;57917;51.380;-0.176;2024-01-30T08:46:58;0.30;;;0.30;;
29700;SDS011;57917;51.380;-0.176;2024-01-30T08:52:46;0.40;;;0.40;;
29700;SDS011;57917;51.380;-0.176;2024-01-30T08:58:35;0.50;;;0.15;;
29700;SDS011;57917;51.380;-0.176;2024-01-30T09:04:25;0.40;;;0.40;;
29700;SDS011;57917;51.380;-0.176;2024-01-30T09:10:20;0.20;;;0.20;;
29700;SDS011;57917;51.380;-0.176;2024-01-30T09:16:38;0.30;;;0.30;;
29700;SDS011;57917;51.380;-0.176;2024-01-30T09:22:25;0.30;;;0.30;;
29700;SDS011;57917;51.380;-0.176;2024-01-30T09:28:14;1.15;;;0.45;;
29700;SDS011;57917;51.380;-0.176;2024-01-30T09:34:02;0.45;;;0.32;;
29700;SDS011;57917;51.380;-0.176;2024-01-30T09:39:49;0.35;;;0.35;;
29700;SDS011;57917;51.380;-0.176;2024-01-30T09:45:36;0.90;;;0.52;;
29700;SDS011;57917;51.380;-0.176;2024-01-30T09:51:24;0.35;;;0.30;;
29700;SDS011;57917;51.380;-0.176;2024-01-30T09:57:15;0.35;;;0.35;;
29700;SDS011;57917;51.380;-0.176;2024-01-30T10:03:02;0.20;;;0.20;;
29700;SDS011;57917;51.380;-0.176;2024-01-30T10:08:50;0.20;;;0.20;;
29700;SDS011;57917;51.380;-0.176;2024-01-30T10:14:39;0.20;;;0.20;;
29700;SDS011;57917;51.380;-0.176;2024-01-30T10:20:26;0.22;;;0.22;;
29700;SDS011;57917;51.380;-0.176;2024-01-30T10:26:15;2.72;;;1.20;;
29700;SDS011;57917;51.380;-0.176;2024-01-30T10:32:07;0.30;;;0.30;;
29700;SDS011;57917;51.380;-0.176;2024-01-30T10:37:56;0.47;;;0.35;;
29700;SDS011;57917;51.380;-0.176;2024-01-30T10:43:47;0.38;;;0.38;;
29700;SDS011;57917;51.380;-0.176;2024-01-30T10:49:41;0.30;;;0.30;;
29700;SDS011;57917;51.380;-0.176;2024-01-30T10:55:33;0.25;;;0.25;;
29700;SDS011;57917;51.380;-0.176;2024-01-30T11:01:25;0.20;;;0.20;;
29700;SDS011;57917;51.380;-0.176;2024-01-30T11:07:16;0.30;;;0.30;;
29700;SDS011;57917;51.380;-0.176;2024-01-30T11:13:09;5.75;;;0.20;;
29700;SDS011;57917;51.380;-0.176;2024-01-30T11:18:59;0.22;;;0.22;;
29700;SDS011;57917;51.380;-0.176;2024-01-30T11:24:47;0.20;;;0.20;;
29700;SDS011;57917;51.380;-0.176;2024-01-30T11:30:34;0.40;;;0.40;;
29700;SDS011;57917;51.380;-0.176;2024-01-30T11:36:25;0.32;;;0.32;;
29700;SDS011;57917;51.380;-0.176;2024-01-30T11:42:13;0.67;;;0.40;;
29700;SDS011;57917;51.380;-0.176;2024-01-30T11:48:05;0.30;;;0.30;;
29700;SDS011;57917;51.380;-0.176;2024-01-30T11:53:55;0.30;;;0.30;;
29700;SDS011;57917;51.380;-0.176;2024-01-30T11:59:44;0.55;;;0.38;;
29700;SDS011;57917;51.380;-0.176;2024-01-30T12:05:31;0.30;;;0.30;;
29700;SDS011;57917;51.380;-0.176;2024-01-30T12:11:18;0.20;;;0.20;;
29700;SDS011;57917;51.380;-0.176;2024-01-30T12:17:08;0.57;;;0.40;;
29700;SDS011;57917;51.380;-0.176;2024-01-30T12:22:55;0.20;;;0.20;;
29700;SDS011;57917;51.380;-0.176;2024-01-30T12:28:49;1.00;;;0.70;;
29700;SDS011;57917;51.380;-0.176;2024-01-30T12:34:42;0.20;;;0.20;;
29700;SDS011;57917;51.380;-0.176;2024-01-30T12:40:45;0.30;;;0.30;;
29700;SDS011;57917;51.380;-0.176;2024-01-30T12:46:36;0.20;;;0.20;;
29700;SDS011;57917;51.380;-0.176;2024-01-30T12:52:23;0.57;;;0.40;;
29700;SDS011;57917;51.380;-0.176;2024-01-30T12:58:14;2.03;;;0.55;;
29700;SDS011;57917;51.380;-0.176;2024-01-30T13:04:01;0.20;;;0.20;;
29700;SDS011;57917;51.380;-0.176;2024-01-30T13:09:49;0.30;;;0.30;;
29700;SDS011;57917;51.380;-0.176;2024-01-30T13:15:36;0.30;;;0.30;;
29700;SDS011;57917;51.380;-0.176;2024-01-30T13:21:24;8.75;;;0.35;;
29700;SDS011;57917;51.380;-0.176;2024-01-30T13:27:11;0.25;;;0.25;;
29700;SDS011;57917;51.380;-0.176;2024-01-30T13:32:58;0.28;;;0.28;;
29700;SDS011;57917;51.380;-0.176;2024-01-30T13:38:46;0.30;;;0.30;;
29700;SDS011;57917;51.380;-0.176;2024-01-30T13:44:34;0.20;;;0.20;;
29700;SDS011;57917;51.380;-0.176;2024-01-30T13:50:23;1.75;;;0.75;;
29700;SDS011;57917;51.380;-0.176;2024-01-30T13:56:09;0.10;;;0.10;;
29700;SDS011;57917;51.380;-0.176;2024-01-30T14:01:56;0.65;;;0.50;;
29700;SDS011;57917;51.380;-0.176;2024-01-30T14:07:44;0.20;;;0.20;;
29700;SDS011;57917;51.380;-0.176;2024-01-30T14:13:33;0.30;;;0.30;;
29700;SDS011;57917;51.380;-0.176;2024-01-30T14:19:21;0.65;;;0.50;;
29700;SDS011;57917;51.380;-0.176;2024-01-30T14:25:11;0.57;;;0.47;;
29700;SDS011;57917;51.380;-0.176;2024-01-30T14:31:00;0.60;;;0.60;;
29700;SDS011;57917;51.380;-0.176;2024-01-30T14:36:47;0.60;;;0.43;;
29700;SDS011;57917;51.380;-0.176;2024-01-30T14:42:34;0.30;;;0.30;;
29700;SDS011;57917;51.380;-0.176;2024-01-30T14:48:22;1.30;;;0.63;;
29700;SDS011;57917;51.380;-0.176;2024-01-30T14:54:13;0.30;;;0.30;;
29700;SDS011;57917;51.380;-0.176;2024-01-30T15:00:04;0.20;;;0.20;;
29700;SDS011;57917;51.380;-0.176;2024-01-30T15:05:55;7.03;;;0.73;;
29700;SDS011;57917;51.380;-0.176;2024-01-30T15:11:43;0.73;;;0.65;;
29700;SDS011;57917;51.380;-0.176;2024-01-30T15:17:43;0.20;;;0.20;;
29700;SDS011;57917;51.380;-0.176;2024-01-30T15:23:30;1.30;;;0.50;;
29700;SDS011;57917;51.380;-0.176;2024-01-30T15:29:20;0.80;;;0.52;;
29700;SDS011;57917;51.380;-0.176;2024-01-30T15:35:13;2.45;;;0.50;;
29700;SDS011;57917;51.380;-0.176;2024-01-30T15:41:06;0.60;;;0.60;;
29700;SDS011;57917;51.380;-0.176;2024-01-30T15:46:56;0.32;;;0.32;;
29700;SDS011;57917;51.380;-0.176;2024-01-30T15:52:44;0.68;;;0.45;;
29700;SDS011;57917;51.380;-0.176;2024-01-30T15:58:33;0.40;;;0.40;;
29700;SDS011;57917;51.380;-0.176;2024-01-30T16:04:21;0.30;;;0.30;;
29700;SDS011;57917;51.380;-0.176;2024-01-30T16:10:11;0.30;;;0.30;;
29700;SDS011;57917;51.380;-0.176;2024-01-30T16:21:53;5.45;;;1.27;;
29700;SDS011;57917;51.380;-0.176;2024-01-30T16:28:08;0.68;;;0.50;;
29700;SDS011;57917;51.380;-0.176;2024-01-30T16:34:01;11.77;;;0.60;;
29700;SDS011;57917;51.380;-0.176;2024-01-30T16:39:49;0.30;;;0.30;;
29700;SDS011;57917;51.380;-0.176;2024-01-30T16:45:36;0.77;;;0.57;;
29700;SDS011;57917;51.380;-0.176;2024-01-30T16:51:23;0.28;;;0.28;;
29700;SDS011;57917;51.380;-0.176;2024-01-30T16:57:17;0.50;;;0.50;;
29700;SDS011;57917;51.380;-0.176;2024-01-30T17:03:05;0.95;;;0.88;;
29700;SDS011;57917;51.380;-0.176;2024-01-30T17:08:51;0.90;;;0.45;;
29700;SDS011;57917;51.380;-0.176;2024-01-30T17:14:39;0.68;;;0.60;;
29700;SDS011;57917;51.380;-0.176;2024-01-30T17:20:28;0.38;;;0.30;;
29700;SDS011;57917;51.380;-0.176;2024-01-30T17:26:15;0.50;;;0.50;;
29700;SDS011;57917;51.380;-0.176;2024-01-30T17:32:02;1.02;;;0.57;;
29700;SDS011;57917;51.380;-0.176;2024-01-30T17:37:50;1.15;;;0.75;;
29700;SDS011;57917;51.380;-0.176;2024-01-30T17:43:38;1.77;;;0.90;;
29700;SDS011;57917;51.380;-0.176;2024-01-30T17:49:26;0.55;;;0.55;;
29700;SDS011;57917;51.380;-0.176;2024-01-30T17:55:16;0.85;;;0.60;;
29700;SDS011;57917;51.380;-0.176;2024-01-30T18:01:03;0.80;;;0.60;;
29700;SDS011;57917;51.380;-0.176;2024-01-30T18:06:51;3.00;;;0.90;;
29700;SDS011;57917;51.380;-0.176;2024-01-30T18:12:40;0.88;;;0.75;;
29700;SDS011;57917;51.380;-0.176;2024-01-30T18:18:28;1.08;;;0.52;;
29700;SDS011;57917;51.380;-0.176;2024-01-30T18:24:18;0.70;;;0.70;;
29700;SDS011;57917;51.380;-0.176;2024-01-30T18:30:31;0.80;;;0.80;;
29700;SDS011;57917;51.380;-0.176;2024-01-30T18:36:18;4.18;;;1.25;;
29700;SDS011;57917;51.380;-0.176;2024-01-30T18:42:15;4.32;;;1.25;;
29700;SDS011;57917;51.380;-0.176;2024-01-30T18:48:04;1.85;;;0.47;;
29700;SDS011;57917;51.380;-0.176;2024-01-30T18:53:51;2.80;;;1.10;;
29700;SDS011;57917;51.380;-0.176;2024-01-30T18:59:42;0.80;;;0.73;;
29700;SDS011;57917;51.380;-0.176;2024-01-30T19:05:34;1.35;;;1.00;;
29700;SDS011;57917;51.380;-0.176;2024-01-30T19:11:21;6.78;;;1.10;;
29700;SDS011;57917;51.380;-0.176;2024-01-30T19:17:08;1.05;;;0.80;;
29700;SDS011;57917;51.380;-0.176;2024-01-30T19:22:58;1.85;;;1.25;;
29700;SDS011;57917;51.380;-0.176;2024-01-30T19:28:47;2.13;;;1.45;;
29700;SDS011;57917;51.380;-0.176;2024-01-30T19:34:36;1.42;;;1.17;;
29700;SDS011;57917;51.380;-0.176;2024-01-30T19:40:23;6.78;;;1.73;;
29700;SDS011;57917;51.380;-0.176;2024-01-30T19:46:16;1.98;;;0.65;;
29700;SDS011;57917;51.380;-0.176;2024-01-30T19:52:06;0.93;;;0.90;;
29700;SDS011;57917;51.380;-0.176;2024-01-30T19:58:07;2.55;;;1.48;;
29700;SDS011;57917;51.380;-0.176;2024-01-30T20:04:00;3.17;;;1.60;;
29700;SDS011;57917;51.380;-0.176;2024-01-30T20:09:48;1.58;;;1.38;;
29700;SDS011;57917;51.380;-0.176;2024-01-30T20:15:35;3.42;;;1.60;;
29700;SDS011;57917;51.380;-0.176;2024-01-30T20:21:22;1.92;;;1.48;;
29700;SDS011;57917;51.380;-0.176;2024-01-30T20:27:12;3.92;;;1.73;;
29700;SDS011;57917;51.380;-0.176;2024-01-30T20:33:05;2.63;;;1.52;;
29700;SDS011;57917;51.380;-0.176;2024-01-30T20:38:55;1.70;;;1.55;;
29700;SDS011;57917;51.380;-0.176;2024-01-30T20:44:42;8.65;;;2.63;;
29700;SDS011;57917;51.380;-0.176;2024-01-30T20:50:31;1.67;;;1.27;;
29700;SDS011;57917;51.380;-0.176;2024-01-30T20:56:19;2.78;;;2.05;;
29700;SDS011;57917;51.380;-0.176;2024-01-30T21:02:09;2.05;;;1.50;;
29700;SDS011;57917;51.380;-0.176;2024-01-30T21:07:57;12.43;;;1.98;;
29700;SDS011;57917;51.380;-0.176;2024-01-30T21:13:45;4.57;;;1.95;;
29700;SDS011;57917;51.380;-0.176;2024-01-30T21:19:32;11.77;;;2.05;;
29700;SDS011;57917;51.380;-0.176;2024-01-30T21:25:21;3.72;;;1.75;;
29700;SDS011;57917;51.380;-0.176;2024-01-30T21:31:08;2.15;;;1.67;;
29700;SDS011;57917;51.380;-0.176;2024-01-30T21:36:55;2.08;;;1.65;;
29700;SDS011;57917;51.380;-0.176;2024-01-30T21:42:42;7.28;;;2.67;;
29700;SDS011;57917;51.380;-0.176;2024-01-30T21:48:29;4.13;;;1.80;;
29700;SDS011;57917;51.380;-0.176;2024-01-30T21:54:27;1.90;;;1.70;;
29700;SDS011;57917;51.380;-0.176;2024-01-30T22:01:37;2.72;;;1.95;;
29700;SDS011;57917;51.380;-0.176;2024-01-30T22:07:28;3.60;;;2.35;;
29700;SDS011;57917;51.380;-0.176;2024-01-30T22:13:15;2.30;;;1.80;;
29700;SDS011;57917;51.380;-0.176;2024-01-30T22:26:00;4.40;;;2.30;;
29700;SDS011;57917;51.380;-0.176;2024-01-30T22:32:17;1.65;;;1.55;;
29700;SDS011;57917;51.380;-0.176;2024-01-30T22:38:07;5.53;;;3.25;;
29700;SDS011;57917;51.380;-0.176;2024-01-30T22:43:55;3.00;;;1.83;;
29700;SDS011;57917;51.380;-0.176;2024-01-30T22:49:42;2.55;;;1.80;;
29700;SDS011;57917;51.380;-0.176;2024-01-30T22:55:29;4.75;;;2.30;;
29700;SDS011;57917;51.380;-0.176;2024-01-30T23:01:16;1.58;;;1.20;;
29700;SDS011;57917;51.380;-0.176;2024-01-30T23:13:52;5.70;;;1.73;;
29700;SDS011;57917;51.380;-0.176;2024-01-30T23:19:42;2.13;;;1.63;;
29700;SDS011;57917;51.380;-0.176;2024-01-30T23:25:53;4.07;;;1.88;;
29700;SDS011;57917;51.380;-0.176;2024-01-30T23:31:48;4.82;;;2.33;;
29700;SDS011;57917;51.380;-0.176;2024-01-30T23:37:36;3.47;;;2.35;;
29700;SDS011;57917;51.380;-0.176;2024-01-30T23:43:26;3.00;;;1.80;;
29700;SDS011;57917;51.380;-0.176;2024-01-30T23:49:16;5.80;;;3.17;;
29700;SDS011;57917;51.380;-0.176;2024-01-30T23:55:04;1.70;;;1.58;;
